Current Weather

King Abdulaziz Intl

King Abdulaziz Intl, Saudi Arabia (OEJN)

Report from: Sunday, December 4, 2022 2:00 PM +03
Current time: Sunday, December 4, 2022 2:33 PM +03

Nearby weather
Weather history
Weather forecast

Temperature31.0°C (87.8°F)
Heat index33.8°C (92.8°F)
Dew point21.0°C (69.8°F)
Winds 8 kts (4.1 m/s, 9.2 mph) West (270°)
Visibility5 mi. (8 km)
Clouds Scattered clouds 3,500 ft. (1,067 m)
Scattered clouds 8,000 ft. (2,438 m)
Altimeter29.85 in.Hg (1011 mB)
Relative humidity55 %
Density altitude2,241 ft. (683 m)
Remarks No significant changes expected in the next two hours
Flight conditions Marginal Visual Meteorological Conditions
Raw dataOEJN 041100Z 27008KT 8000 SCT035 SCT080 31/21 Q1011 NOSIG
An error has occurred. This application may no longer respond until reloaded. Reload 🗙